createdAt,value
2023-01-27T00:03:44.943Z,3.95
2023-01-27T00:08:46.368Z,4.15
2023-01-27T00:13:48.224Z,3.38
2023-01-27T00:18:49.625Z,3.80
2023-01-27T00:24:09.703Z,3.55
2023-01-27T00:29:11.165Z,4.22
2023-01-27T00:34:12.956Z,3.70
2023-01-27T00:39:14.431Z,3.88
2023-01-27T00:44:16.208Z,5.40
2023-01-27T00:49:18.319Z,4.95
2023-01-27T00:54:19.746Z,4.68
2023-01-27T00:59:22.507Z,4.45
2023-01-27T01:04:23.917Z,5.03
2023-01-27T01:09:25.313Z,4.57
2023-01-27T01:14:26.713Z,3.90
2023-01-27T01:19:30.216Z,4.75
2023-01-27T01:24:31.680Z,4.85
2023-01-27T01:29:33.316Z,4.65
2023-01-27T01:34:34.764Z,4.25
2023-01-27T01:39:36.335Z,6.80
2023-01-27T01:44:37.792Z,5.78
2023-01-27T01:49:40.851Z,5.05
2023-01-27T01:54:48.923Z,4.88
2023-01-27T02:00:01.993Z,6.68
2023-01-27T02:05:07.525Z,5.03
2023-01-27T02:10:11.799Z,6.97
2023-01-27T02:15:13.723Z,6.95
2023-01-27T02:20:21.407Z,6.32
2023-01-27T02:25:35.080Z,5.97
2023-01-27T02:30:36.601Z,7.55
2023-01-27T02:35:50.759Z,8.07
2023-01-27T02:40:55.359Z,8.00
2023-01-27T02:45:56.808Z,10.10
2023-01-27T02:50:58.315Z,7.63
2023-01-27T02:55:59.985Z,9.80
2023-01-27T03:01:01.443Z,8.88
2023-01-27T03:06:03.088Z,10.10
2023-01-27T03:11:04.709Z,10.07
2023-01-27T03:16:25.907Z,12.52
2023-01-27T03:21:27.653Z,9.95
2023-01-27T03:26:29.248Z,11.80
2023-01-27T03:31:30.676Z,11.60
2023-01-27T03:36:50.918Z,13.32
2023-01-27T03:42:11.237Z,13.35
2023-01-27T03:47:12.671Z,12.88
2023-01-27T03:52:14.091Z,12.15
2023-01-27T03:57:15.632Z,10.05
2023-01-27T04:02:35.785Z,10.15
2023-01-27T04:07:37.632Z,8.45
2023-01-27T04:12:39.074Z,8.40
2023-01-27T04:17:41.723Z,9.70
2023-01-27T04:22:43.291Z,8.27
2023-01-27T04:27:45.093Z,7.45
2023-01-27T04:32:46.518Z,8.07
2023-01-27T04:37:48.197Z,6.70
2023-01-27T04:42:49.771Z,6.50
2023-01-27T04:47:51.471Z,6.65
2023-01-27T04:52:52.923Z,6.45
2023-01-27T04:57:54.317Z,5.75
2023-01-27T05:02:55.722Z,6.18
2023-01-27T05:07:57.109Z,5.38
2023-01-27T05:12:59.087Z,5.63
2023-01-27T05:18:00.489Z,5.50
2023-01-27T05:23:20.488Z,4.63
2023-01-27T05:28:21.923Z,5.60
2023-01-27T05:33:23.529Z,4.40
2023-01-27T05:38:25.022Z,4.65
2023-01-27T05:43:26.653Z,5.07
2023-01-27T05:48:28.073Z,4.40
2023-01-27T05:53:29.755Z,5.10
2023-01-27T05:58:31.719Z,4.82
2023-01-27T06:03:33.129Z,5.07
2023-01-27T06:08:35.623Z,4.60
2023-01-27T06:13:39.119Z,4.78
2023-01-27T06:18:40.872Z,3.92
2023-01-27T06:23:42.368Z,4.20
2023-01-27T06:28:44.472Z,4.00
2023-01-27T06:33:46.016Z,4.20
2023-01-27T06:38:48.822Z,4.75
2023-01-27T06:43:50.545Z,3.20
2023-01-27T06:48:51.974Z,3.53
2023-01-27T06:53:53.406Z,4.45
2023-01-27T06:58:55.024Z,4.10
2023-01-27T07:04:04.912Z,3.10
2023-01-27T07:09:07.497Z,3.42
2023-01-27T07:14:10.600Z,4.13
2023-01-27T07:19:12.903Z,2.85
2023-01-27T07:24:14.675Z,3.58
2023-01-27T07:29:16.375Z,3.13
2023-01-27T07:34:18.527Z,3.00
2023-01-27T07:39:21.400Z,2.53
2023-01-27T07:44:24.487Z,2.78
2023-01-27T07:49:27.532Z,2.25
2023-01-27T07:54:30.708Z,2.22
2023-01-27T07:59:32.211Z,3.20
2023-01-27T08:04:47.185Z,2.67
2023-01-27T08:09:54.923Z,2.55
2023-01-27T08:14:59.555Z,2.42
2023-01-27T08:20:01.843Z,2.45
2023-01-27T08:25:04.622Z,2.20
2023-01-27T08:30:07.516Z,2.58
2023-01-27T08:35:09.172Z,2.08
2023-01-27T08:40:11.797Z,2.30
2023-01-27T08:45:14.411Z,2.47
2023-01-27T08:50:16.233Z,2.15
2023-01-27T08:55:17.936Z,2.40
2023-01-27T09:00:19.723Z,2.80
2023-01-27T09:05:24.289Z,2.92
2023-01-27T09:10:25.900Z,3.20
2023-01-27T09:15:27.553Z,1.30
2023-01-27T09:20:29.333Z,3.80
2023-01-27T09:25:31.667Z,2.95
2023-01-27T09:30:33.662Z,3.60
2023-01-27T09:35:45.593Z,3.55
2023-01-27T09:41:18.501Z,4.03
2023-01-27T09:46:42.076Z,3.20
2023-01-27T09:51:58.505Z,4.47
2023-01-27T09:57:09.520Z,4.07
2023-01-27T10:02:34.268Z,3.38
2023-01-27T10:07:53.764Z,3.80
2023-01-27T10:13:07.455Z,2.83
2023-01-27T10:18:15.477Z,3.05
2023-01-27T10:23:47.196Z,3.50
2023-01-27T10:29:08.313Z,3.58
2023-01-27T10:34:23.182Z,4.10
2023-01-27T10:39:44.091Z,3.65
2023-01-27T10:45:12.806Z,4.43
2023-01-27T10:50:22.654Z,4.80
2023-01-27T10:55:36.431Z,3.90
2023-01-27T11:01:19.475Z,3.70
2023-01-27T11:06:15.449Z,3.30
2023-01-27T11:11:39.887Z,4.18
2023-01-27T11:16:49.369Z,2.80
2023-01-27T11:22:06.776Z,3.45
2023-01-27T11:27:41.456Z,3.13
2023-01-27T11:33:04.566Z,3.08
2023-01-27T11:38:16.719Z,3.83
2023-01-27T11:43:21.390Z,3.85
2023-01-27T11:48:23.618Z,3.92
2023-01-27T11:53:40.875Z,3.20
2023-01-27T12:04:01.581Z,3.10
2023-01-27T12:09:03.530Z,2.78
2023-01-27T12:14:05.342Z,2.45
2023-01-27T12:19:24.916Z,2.35
2023-01-27T12:24:35.611Z,2.08
2023-01-27T12:29:48.877Z,2.95
2023-01-27T12:34:56.554Z,3.75
2023-01-27T12:40:02.483Z,2.67
2023-01-27T12:45:35.090Z,2.97
2023-01-27T12:50:41.827Z,3.53
2023-01-27T12:55:49.386Z,3.03
2023-01-27T13:00:50.835Z,3.15
2023-01-27T13:05:55.459Z,2.95
2023-01-27T13:11:00.375Z,2.38
2023-01-27T13:16:25.284Z,2.85
2023-01-27T13:21:36.079Z,2.35
2023-01-27T13:26:39.783Z,2.67
2023-01-27T13:31:59.302Z,1.98
2023-01-27T13:37:28.423Z,2.38
2023-01-27T13:42:40.131Z,3.10
2023-01-27T13:47:56.301Z,2.63
2023-01-27T13:52:59.831Z,2.78
2023-01-27T13:58:05.997Z,2.63
2023-01-27T14:03:18.332Z,2.97
2023-01-27T14:08:37.015Z,4.47
2023-01-27T14:13:49.716Z,3.47
2023-01-27T14:19:08.282Z,3.50
2023-01-27T14:24:30.727Z,5.82
2023-01-27T14:29:55.264Z,4.68
2023-01-27T14:35:27.835Z,4.75
2023-01-27T14:40:45.168Z,4.57
2023-01-27T14:45:52.636Z,5.13
2023-01-27T14:51:17.821Z,5.50
2023-01-27T14:56:28.777Z,4.85
2023-01-27T15:01:52.234Z,3.80
2023-01-27T15:06:53.617Z,5.22
2023-01-27T15:12:22.946Z,3.95
2023-01-27T15:17:58.530Z,5.32
2023-01-27T15:23:09.213Z,8.90
2023-01-27T15:28:16.369Z,4.20
2023-01-27T15:33:53.345Z,4.18
2023-01-27T15:39:03.287Z,4.07
2023-01-27T15:45:00.429Z,5.20
2023-01-27T15:50:23.313Z,5.57
2023-01-27T15:55:26.854Z,5.40
2023-01-27T16:00:43.922Z,8.30
2023-01-27T16:05:52.179Z,4.28
2023-01-27T16:11:39.618Z,4.60
2023-01-27T16:17:17.742Z,4.07
2023-01-27T16:22:19.872Z,4.82
2023-01-27T16:27:45.111Z,4.60
2023-01-27T16:33:03.239Z,4.38
2023-01-27T16:38:22.750Z,4.97
2023-01-27T16:44:05.577Z,4.63
2023-01-27T16:49:28.059Z,4.20
2023-01-27T16:54:36.683Z,8.50
2023-01-27T16:59:40.217Z,5.47
2023-01-27T17:04:55.391Z,4.05
2023-01-27T17:09:59.978Z,4.43
2023-01-27T17:15:16.186Z,4.60
2023-01-27T17:20:28.858Z,4.53
2023-01-27T17:25:39.952Z,3.88
2023-01-27T17:30:42.447Z,4.70
2023-01-27T17:35:51.604Z,4.72
2023-01-27T17:40:55.503Z,4.95
2023-01-27T17:46:06.156Z,4.57
2023-01-27T17:51:12.847Z,4.68
2023-01-27T17:56:18.930Z,5.00
2023-01-27T18:01:22.741Z,4.23
2023-01-27T18:06:28.822Z,4.65
2023-01-27T18:11:33.893Z,5.28
2023-01-27T18:16:35.808Z,4.18
2023-01-27T18:21:37.619Z,4.22
2023-01-27T18:26:42.302Z,4.35
2023-01-27T18:31:58.164Z,4.45
2023-01-27T18:37:07.291Z,3.90
2023-01-27T18:42:15.460Z,3.85
2023-01-27T18:47:16.924Z,4.82
2023-01-27T18:52:18.675Z,4.28
2023-01-27T18:57:20.361Z,5.95
2023-01-27T19:02:23.715Z,5.85
2023-01-27T19:07:28.202Z,7.95
2023-01-27T19:12:31.077Z,3.50
2023-01-27T19:17:32.900Z,11.32
2023-01-27T19:22:35.227Z,4.93
2023-01-27T19:27:41.817Z,5.22
2023-01-27T19:32:44.712Z,4.22
2023-01-27T19:37:47.343Z,5.78
2023-01-27T19:42:52.043Z,3.67
2023-01-27T19:47:53.634Z,4.20
2023-01-27T19:52:55.666Z,8.05
2023-01-27T19:57:57.365Z,5.10
2023-01-27T20:03:00.678Z,5.35
2023-01-27T20:08:02.362Z,6.95
2023-01-27T20:13:06.634Z,8.52
2023-01-27T20:18:22.812Z,6.55
2023-01-27T20:28:28.986Z,7.18
2023-01-27T20:33:30.405Z,6.18
2023-01-27T20:38:32.047Z,6.25
2023-01-27T20:43:35.896Z,5.80
2023-01-27T20:48:42.202Z,6.88
2023-01-27T20:53:46.318Z,10.50
2023-01-27T20:58:48.936Z,4.97
2023-01-27T21:03:50.802Z,5.13
2023-01-27T21:08:52.408Z,4.93
2023-01-27T21:13:55.085Z,4.72
2023-01-27T21:18:58.231Z,4.82
2023-01-27T21:24:02.871Z,6.53
2023-01-27T21:29:05.314Z,5.85
2023-01-27T21:34:08.939Z,6.78
2023-01-27T21:39:10.504Z,6.50
2023-01-27T21:44:35.813Z,6.00
2023-01-27T21:50:00.484Z,6.32
2023-01-27T21:55:04.435Z,5.47
2023-01-27T22:00:08.890Z,5.82
2023-01-27T22:05:16.796Z,6.38
2023-01-27T22:10:21.168Z,5.05
2023-01-27T22:15:23.996Z,5.30
2023-01-27T22:20:26.639Z,6.63
2023-01-27T22:25:28.108Z,6.20
2023-01-27T22:30:29.684Z,6.43
2023-01-27T22:35:31.096Z,5.40
2023-01-27T22:40:32.742Z,4.88
2023-01-27T22:45:34.262Z,5.53
2023-01-27T22:50:37.819Z,5.72
2023-01-27T22:55:39.370Z,5.72
2023-01-27T23:00:46.667Z,5.95
2023-01-27T23:05:48.638Z,6.20
2023-01-27T23:10:51.608Z,5.40
2023-01-27T23:15:53.600Z,6.13
2023-01-27T23:20:55.725Z,6.13
2023-01-27T23:25:57.110Z,5.57
2023-01-27T23:30:58.706Z,6.20
2023-01-27T23:36:00.156Z,6.05
2023-01-27T23:41:21.892Z,6.88
2023-01-27T23:46:26.395Z,6.95
2023-01-27T23:51:27.894Z,6.43
2023-01-27T23:56:29.364Z,6.88
